createdAt,value
2018-10-21T00:00:48.517Z,14.40
2018-10-21T00:03:17.284Z,12.97
2018-10-21T00:05:45.944Z,14.57
2018-10-21T00:08:14.645Z,11.20
2018-10-21T00:10:43.607Z,11.57
2018-10-21T00:13:12.351Z,13.27
2018-10-21T00:15:41.171Z,14.73
2018-10-21T00:18:09.811Z,12.73
2018-10-21T00:20:38.528Z,12.97
2018-10-21T00:23:07.354Z,13.03
2018-10-21T00:25:36.076Z,13.63
2018-10-21T00:28:04.860Z,14.73
2018-10-21T00:30:33.608Z,18.63
2018-10-21T00:33:02.312Z,10.67
2018-10-21T00:35:31.028Z,12.67
2018-10-21T00:37:59.767Z,9.93
2018-10-21T00:40:28.518Z,12.67
2018-10-21T00:42:57.200Z,12.70
2018-10-21T00:45:25.901Z,11.90
2018-10-21T00:47:54.602Z,10.57
2018-10-21T00:50:23.311Z,11.60
2018-10-21T00:52:52.014Z,15.30
2018-10-21T00:55:20.722Z,12.33
2018-10-21T00:57:49.419Z,13.60
2018-10-21T01:00:18.194Z,11.63
2018-10-21T01:02:46.899Z,11.97
2018-10-21T01:05:15.656Z,13.10
2018-10-21T01:07:44.370Z,10.33
2018-10-21T01:10:13.092Z,13.67
2018-10-21T01:12:42.137Z,13.67
2018-10-21T01:15:12.186Z,14.27
2018-10-21T01:17:40.893Z,9.73
2018-10-21T01:20:11.512Z,13.23
2018-10-21T01:22:40.650Z,14.83
2018-10-21T01:25:09.881Z,10.33
2018-10-21T01:27:39.531Z,11.53
2018-10-21T01:30:09.389Z,12.77
2018-10-21T01:32:38.149Z,9.70
2018-10-21T01:35:07.763Z,11.40
2018-10-21T01:37:36.551Z,11.87
2018-10-21T01:40:48.172Z,14.13
2018-10-21T01:43:18.830Z,9.60
2018-10-21T01:45:47.583Z,12.30
2018-10-21T01:48:17.447Z,10.83
2018-10-21T01:50:46.256Z,10.83
2018-10-21T01:53:15.882Z,13.43
2018-10-21T01:55:44.653Z,10.93
2018-10-21T01:58:13.369Z,12.27
2018-10-21T02:00:42.522Z,12.67
2018-10-21T02:03:11.280Z,11.63
2018-10-21T02:05:40.557Z,9.93
2018-10-21T02:08:09.275Z,9.97
2018-10-21T02:10:38.052Z,9.30
2018-10-21T02:13:06.842Z,10.17
2018-10-21T02:15:35.546Z,13.37
2018-10-21T02:18:04.364Z,11.63
2018-10-21T02:20:33.079Z,8.20
2018-10-21T02:23:01.846Z,9.23
2018-10-21T02:25:30.544Z,11.23
2018-10-21T02:27:59.258Z,9.43
2018-10-21T02:30:28.952Z,9.77
2018-10-21T02:32:58.356Z,10.13
2018-10-21T02:35:27.013Z,10.80
2018-10-21T02:37:56.204Z,7.63
2018-10-21T02:41:36.903Z,12.47
2018-10-21T02:44:06.597Z,9.53
2018-10-21T02:46:35.796Z,9.37
2018-10-21T02:49:05.174Z,11.83
2018-10-21T02:51:33.869Z,12.10
2018-10-21T02:54:02.573Z,14.63
2018-10-21T02:56:31.282Z,12.63
2018-10-21T02:59:00.025Z,13.73
2018-10-21T03:01:28.727Z,14.43
2018-10-21T03:03:57.440Z,12.93
2018-10-21T03:06:26.169Z,16.50
2018-10-21T03:08:54.881Z,16.03
2018-10-21T03:11:23.608Z,10.60
2018-10-21T03:13:52.425Z,12.47
2018-10-21T03:16:21.162Z,11.07
2018-10-21T03:18:49.864Z,9.70
2018-10-21T03:21:18.627Z,11.03
2018-10-21T03:23:47.278Z,11.13
2018-10-21T03:26:15.972Z,9.97
2018-10-21T03:28:44.660Z,9.23
2018-10-21T03:31:13.348Z,9.47
2018-10-21T03:33:42.180Z,10.83
2018-10-21T03:36:10.818Z,10.80
2018-10-21T03:38:39.577Z,9.60
2018-10-21T03:41:08.284Z,10.07
2018-10-21T03:43:37.007Z,10.43
2018-10-21T03:46:05.763Z,12.97
2018-10-21T03:48:34.491Z,9.13
2018-10-21T03:51:03.268Z,9.90
2018-10-21T03:53:31.976Z,10.73
2018-10-21T03:56:00.688Z,9.50
2018-10-21T03:58:29.413Z,9.87
2018-10-21T04:00:58.149Z,11.07
2018-10-21T04:03:26.828Z,10.77
2018-10-21T04:05:55.544Z,10.33
2018-10-21T04:08:24.248Z,12.80
2018-10-21T04:10:52.930Z,10.87
2018-10-21T04:13:21.636Z,9.97
2018-10-21T04:15:50.352Z,10.03
2018-10-21T04:18:19.079Z,11.60
2018-10-21T04:20:47.767Z,10.57
2018-10-21T04:23:16.457Z,11.33
2018-10-21T04:25:45.173Z,10.93
2018-10-21T04:28:14.008Z,9.30
2018-10-21T04:30:43.314Z,11.87
2018-10-21T04:33:18.232Z,9.27
2018-10-21T04:35:46.952Z,11.77
2018-10-21T04:38:39.475Z,9.60
2018-10-21T04:41:08.205Z,14.17
2018-10-21T04:43:36.885Z,12.13
2018-10-21T04:46:05.666Z,12.03
2018-10-21T04:48:34.370Z,12.63
2018-10-21T04:51:03.082Z,9.00
2018-10-21T04:53:31.775Z,14.73
2018-10-21T04:56:00.483Z,11.80
2018-10-21T04:58:29.194Z,13.83
2018-10-21T05:00:57.906Z,12.33
2018-10-21T05:03:26.619Z,8.80
2018-10-21T05:05:55.320Z,11.57
2018-10-21T05:08:24.819Z,13.30
2018-10-21T05:10:53.549Z,14.87
2018-10-21T05:13:22.276Z,11.50
2018-10-21T05:15:51.095Z,10.77
2018-10-21T05:18:19.747Z,9.87
2018-10-21T05:20:48.478Z,10.47
2018-10-21T05:23:17.198Z,11.87
2018-10-21T05:25:45.898Z,11.33
2018-10-21T05:28:14.638Z,12.60
2018-10-21T05:30:43.318Z,11.93
2018-10-21T05:33:12.036Z,13.17
2018-10-21T05:35:41.331Z,10.33
2018-10-21T05:38:10.019Z,13.30
2018-10-21T05:40:38.757Z,14.47
2018-10-21T05:43:07.504Z,13.07
2018-10-21T05:45:36.259Z,13.83
2018-10-21T05:48:05.168Z,11.13
2018-10-21T05:50:33.905Z,10.47
2018-10-21T05:53:02.667Z,8.80
2018-10-21T05:55:31.392Z,10.57
2018-10-21T05:58:00.195Z,12.13
2018-10-21T06:00:28.866Z,11.27
2018-10-21T06:02:57.685Z,10.73
2018-10-21T06:05:43.193Z,12.83
2018-10-21T06:08:11.921Z,11.67
2018-10-21T06:10:41.036Z,10.03
2018-10-21T06:13:09.983Z,9.40
2018-10-21T06:15:38.786Z,11.17
2018-10-21T06:18:09.924Z,9.97
2018-10-21T06:20:43.021Z,10.40
2018-10-21T06:23:11.781Z,13.00
2018-10-21T06:25:40.475Z,12.20
2018-10-21T06:28:09.330Z,13.20
2018-10-21T06:30:38.091Z,11.93
2018-10-21T06:33:06.877Z,15.40
2018-10-21T06:35:35.566Z,12.20
2018-10-21T06:38:04.330Z,12.00
2018-10-21T06:40:33.075Z,16.10
2018-10-21T06:43:01.968Z,14.77
2018-10-21T06:45:30.744Z,10.60
2018-10-21T06:47:59.448Z,17.63
2018-10-21T06:50:28.177Z,15.80
2018-10-21T06:52:56.927Z,23.27
2018-10-21T06:55:25.678Z,18.00
2018-10-21T06:57:54.387Z,17.70
2018-10-21T07:00:23.092Z,17.67
2018-10-21T07:02:51.809Z,17.37
2018-10-21T07:05:31.404Z,15.37
2018-10-21T07:08:00.121Z,12.30
2018-10-21T07:10:28.958Z,14.70
2018-10-21T07:12:57.693Z,13.90
2018-10-21T07:15:26.449Z,13.30
2018-10-21T07:17:55.198Z,15.40
2018-10-21T07:20:24.012Z,17.23
2018-10-21T07:22:52.724Z,14.23
2018-10-21T07:25:21.421Z,19.33
2018-10-21T07:27:50.222Z,24.67
2018-10-21T07:30:18.922Z,25.33
2018-10-21T07:32:47.627Z,27.00
2018-10-21T07:35:16.363Z,24.57
2018-10-21T07:37:45.664Z,22.63
2018-10-21T07:40:14.474Z,24.97
2018-10-21T07:42:43.302Z,22.47
2018-10-21T07:45:12.083Z,24.47
2018-10-21T07:47:40.826Z,27.87
2018-10-21T07:50:09.549Z,27.10
2018-10-21T07:52:38.262Z,24.00
2018-10-21T07:55:07.141Z,14.53
2018-10-21T07:57:35.783Z,21.30
2018-10-21T08:00:04.601Z,21.60
2018-10-21T08:02:33.304Z,20.50
2018-10-21T08:05:02.049Z,20.57
2018-10-21T08:07:41.635Z,24.37
2018-10-21T08:10:10.384Z,22.67
2018-10-21T08:12:39.094Z,28.50
2018-10-21T08:15:07.866Z,24.03
2018-10-21T08:17:36.572Z,25.40
2018-10-21T08:20:05.711Z,22.67
2018-10-21T08:22:34.573Z,18.30
2018-10-21T08:25:03.335Z,19.00
2018-10-21T08:27:32.113Z,18.33
2018-10-21T08:30:00.853Z,15.03
2018-10-21T08:32:29.564Z,15.23
2018-10-21T08:34:58.559Z,13.40
2018-10-21T08:37:27.306Z,15.23
2018-10-21T08:39:56.161Z,12.10
2018-10-21T08:42:24.933Z,13.53
2018-10-21T08:44:53.707Z,14.23
2018-10-21T08:47:22.446Z,15.07
2018-10-21T08:49:51.336Z,15.20
2018-10-21T08:52:20.109Z,17.40
2018-10-21T08:54:48.877Z,14.53
2018-10-21T08:57:17.653Z,15.30
2018-10-21T08:59:46.386Z,16.43
2018-10-21T09:02:15.206Z,17.83
2018-10-21T09:04:43.981Z,18.17
2018-10-21T09:07:12.783Z,12.87
2018-10-21T09:09:41.492Z,18.33
2018-10-21T09:12:10.321Z,13.77
2018-10-21T09:14:39.068Z,14.43
2018-10-21T09:17:07.859Z,15.10
2018-10-21T09:19:36.651Z,15.17
2018-10-21T09:22:05.423Z,18.27
2018-10-21T09:24:34.208Z,15.60
2018-10-21T09:27:03.000Z,19.97
2018-10-21T09:29:31.749Z,15.37
2018-10-21T09:32:00.471Z,15.90
2018-10-21T09:34:29.175Z,17.63
2018-10-21T09:36:57.954Z,19.47
2018-10-21T09:39:27.260Z,18.97
2018-10-21T09:41:56.038Z,15.97
2018-10-21T09:44:24.768Z,20.37
2018-10-21T09:46:53.503Z,24.93
2018-10-21T09:49:22.215Z,19.50
2018-10-21T09:51:50.960Z,26.23
2018-10-21T09:54:19.663Z,23.07
2018-10-21T09:56:48.405Z,23.90
2018-10-21T09:59:17.110Z,26.53
2018-10-21T10:01:51.052Z,26.77
2018-10-21T10:04:19.828Z,31.50
2018-10-21T10:06:48.601Z,23.93
2018-10-21T10:09:17.364Z,30.00
2018-10-21T10:11:46.093Z,32.97
2018-10-21T10:14:14.837Z,27.70
2018-10-21T10:16:43.590Z,31.70
2018-10-21T10:19:12.447Z,30.33
2018-10-21T10:21:41.102Z,29.10
2018-10-21T10:24:09.858Z,26.00
2018-10-21T10:26:38.601Z,40.33
2018-10-21T10:29:07.333Z,24.53
2018-10-21T10:31:36.068Z,22.23
2018-10-21T10:34:04.958Z,24.67
2018-10-21T10:36:33.609Z,26.13
2018-10-21T10:39:02.402Z,27.67
2018-10-21T10:41:31.126Z,24.53
2018-10-21T10:43:59.848Z,22.93
2018-10-21T10:46:28.599Z,21.30
2018-10-21T10:48:57.377Z,27.30
2018-10-21T10:51:26.107Z,23.73
2018-10-21T10:53:54.825Z,26.33
2018-10-21T10:56:23.750Z,26.17
2018-10-21T10:58:52.481Z,26.47
2018-10-21T11:01:21.209Z,26.07
2018-10-21T11:03:49.961Z,23.90
2018-10-21T11:06:18.699Z,25.93
2018-10-21T11:08:47.431Z,18.93
2018-10-21T11:11:17.024Z,20.33
2018-10-21T11:13:45.812Z,20.77
2018-10-21T11:16:14.644Z,22.73
2018-10-21T11:18:43.276Z,15.70
2018-10-21T11:21:11.995Z,19.50
2018-10-21T11:23:40.689Z,18.57
2018-10-21T11:26:09.399Z,18.07
2018-10-21T11:28:38.144Z,24.93
2018-10-21T11:31:06.934Z,19.27
2018-10-21T11:33:35.625Z,20.57
2018-10-21T11:36:04.420Z,17.20
2018-10-21T11:38:33.197Z,13.83
2018-10-21T11:41:01.913Z,20.17
2018-10-21T11:43:30.662Z,32.33
2018-10-21T11:45:59.368Z,15.80
2018-10-21T11:48:28.078Z,23.10
2018-10-21T11:50:56.783Z,12.20
2018-10-21T11:53:25.517Z,14.30
2018-10-21T11:55:54.237Z,16.73
2018-10-21T11:58:22.928Z,14.50
2018-10-21T12:00:51.717Z,14.00
2018-10-21T12:03:20.488Z,14.40
2018-10-21T12:05:49.206Z,12.60
2018-10-21T12:08:17.960Z,17.63
2018-10-21T12:10:46.680Z,19.47
2018-10-21T12:13:15.475Z,13.83
2018-10-21T12:15:44.157Z,14.47
2018-10-21T12:18:12.856Z,20.07
2018-10-21T12:20:41.597Z,14.67
2018-10-21T12:23:10.389Z,14.33
2018-10-21T12:25:39.114Z,14.43
2018-10-21T12:28:07.900Z,15.30
2018-10-21T12:30:36.557Z,12.47
2018-10-21T12:33:05.325Z,22.47
2018-10-21T12:35:34.037Z,20.00
2018-10-21T12:38:02.788Z,13.80
2018-10-21T12:40:31.489Z,11.80
2018-10-21T12:43:00.208Z,9.23
2018-10-21T12:45:28.976Z,16.50
2018-10-21T12:47:57.662Z,14.43
2018-10-21T12:50:26.389Z,11.20
2018-10-21T12:52:55.119Z,10.13
2018-10-21T12:55:23.850Z,10.30
2018-10-21T12:57:52.670Z,6.83
2018-10-21T13:00:21.365Z,7.93
2018-10-21T13:02:50.081Z,7.60
2018-10-21T13:05:18.763Z,9.73
2018-10-21T13:07:47.483Z,10.67
2018-10-21T13:10:16.251Z,7.57
2018-10-21T13:12:44.974Z,8.00
2018-10-21T13:15:13.716Z,10.87
2018-10-21T13:17:42.418Z,10.23
2018-10-21T13:20:11.109Z,6.17
2018-10-21T13:22:39.828Z,7.83
2018-10-21T13:25:08.642Z,7.27
2018-10-21T13:27:37.296Z,10.70
2018-10-21T13:30:06.906Z,7.20
2018-10-21T13:32:35.649Z,11.37
2018-10-21T13:35:04.500Z,10.40
2018-10-21T13:37:33.241Z,7.07
2018-10-21T13:40:02.137Z,6.63
2018-10-21T13:42:30.903Z,8.50
2018-10-21T13:44:59.584Z,8.90
2018-10-21T13:47:28.296Z,6.07
2018-10-21T13:49:56.989Z,5.57
2018-10-21T13:52:25.719Z,11.23
2018-10-21T13:54:54.433Z,7.40
2018-10-21T13:57:23.128Z,7.27
2018-10-21T13:59:51.808Z,8.80
2018-10-21T14:02:20.505Z,7.17
2018-10-21T14:04:49.208Z,6.73
2018-10-21T14:07:18.045Z,7.33
2018-10-21T14:09:46.623Z,7.70
2018-10-21T14:12:15.369Z,6.70
2018-10-21T14:14:44.122Z,8.13
2018-10-21T14:17:12.845Z,5.67
2018-10-21T14:19:41.568Z,6.20
2018-10-21T14:22:10.319Z,6.53
2018-10-21T14:24:39.328Z,5.37
2018-10-21T14:27:07.983Z,10.43
2018-10-21T14:29:36.753Z,6.07
2018-10-21T14:32:05.556Z,8.23
2018-10-21T14:34:34.282Z,7.70
2018-10-21T14:37:03.027Z,4.40
2018-10-21T14:39:31.750Z,5.03
2018-10-21T14:42:00.500Z,4.70
2018-10-21T14:44:29.204Z,5.57
2018-10-21T14:46:57.920Z,8.17
2018-10-21T14:49:26.601Z,4.63
2018-10-21T14:51:55.313Z,4.43
2018-10-21T14:54:24.043Z,4.87
2018-10-21T14:56:52.787Z,5.03
2018-10-21T14:59:21.572Z,4.60
2018-10-21T15:01:50.270Z,4.80
2018-10-21T15:04:19.022Z,7.10
2018-10-21T15:06:47.926Z,7.07
2018-10-21T15:09:16.707Z,7.43
2018-10-21T15:11:45.413Z,6.83
2018-10-21T15:14:14.184Z,6.50
2018-10-21T15:16:42.881Z,9.00
2018-10-21T15:19:11.771Z,5.63
2018-10-21T15:21:40.526Z,8.83
2018-10-21T15:24:09.318Z,10.17
2018-10-21T15:26:38.194Z,7.93
2018-10-21T15:29:07.190Z,8.33
2018-10-21T15:31:35.970Z,15.60
2018-10-21T15:34:04.864Z,11.33
2018-10-21T15:36:33.565Z,8.53
2018-10-21T15:39:02.347Z,8.93
2018-10-21T15:41:31.155Z,12.90
2018-10-21T15:43:59.906Z,9.27
2018-10-21T15:46:28.664Z,13.57
2018-10-21T15:48:57.478Z,8.10
2018-10-21T15:51:26.204Z,8.30
2018-10-21T15:53:54.968Z,8.90
2018-10-21T15:56:23.696Z,10.73
2018-10-21T15:58:52.434Z,7.00
2018-10-21T16:01:21.140Z,6.00
2018-10-21T16:03:50.083Z,6.20
2018-10-21T16:06:18.783Z,8.83
2018-10-21T16:08:47.600Z,9.70
2018-10-21T16:11:16.358Z,8.37
2018-10-21T16:13:45.172Z,14.40
2018-10-21T16:16:14.215Z,9.63
2018-10-21T16:18:43.124Z,14.03
2018-10-21T16:21:11.928Z,11.20
2018-10-21T16:23:40.888Z,17.03
2018-10-21T16:26:09.720Z,13.53
2018-10-21T16:28:38.396Z,17.93
2018-10-21T16:31:07.304Z,20.43
2018-10-21T16:33:36.046Z,14.97
2018-10-21T16:36:04.825Z,15.20
2018-10-21T16:38:33.686Z,14.27
2018-10-21T16:41:02.396Z,11.00
2018-10-21T16:43:31.095Z,15.07
2018-10-21T16:45:59.843Z,19.43
2018-10-21T16:48:28.588Z,19.97
2018-10-21T16:50:57.405Z,17.07
2018-10-21T16:53:26.144Z,19.87
2018-10-21T16:55:54.777Z,21.07
2018-10-21T16:58:23.487Z,19.37
2018-10-21T17:00:52.317Z,18.33
2018-10-21T17:03:21.124Z,21.97
2018-10-21T17:05:49.840Z,23.30
2018-10-21T17:08:18.572Z,25.73
2018-10-21T17:10:47.400Z,34.73
2018-10-21T17:13:16.169Z,17.43
2018-10-21T17:15:44.928Z,35.23
2018-10-21T17:18:13.677Z,30.07
2018-10-21T17:20:42.460Z,21.03
2018-10-21T17:23:11.190Z,27.67
2018-10-21T17:25:39.936Z,31.17
2018-10-21T17:28:08.784Z,26.30
2018-10-21T17:30:37.516Z,24.37
2018-10-21T17:33:06.233Z,20.97
2018-10-21T17:35:34.967Z,17.77
2018-10-21T17:38:03.738Z,20.37
2018-10-21T17:40:32.500Z,18.30
2018-10-21T17:43:01.257Z,17.00
2018-10-21T17:45:29.912Z,15.70
2018-10-21T17:47:58.693Z,11.80
2018-10-21T17:50:27.424Z,10.03
2018-10-21T17:52:56.211Z,13.67
2018-10-21T17:55:24.926Z,9.80
2018-10-21T17:57:53.673Z,13.90
2018-10-21T18:00:22.484Z,10.50
2018-10-21T18:02:51.213Z,10.73
2018-10-21T18:05:20.020Z,11.77
2018-10-21T18:07:48.724Z,8.70
2018-10-21T18:10:17.592Z,8.23
2018-10-21T18:12:46.238Z,5.10
2018-10-21T18:15:14.945Z,13.70
2018-10-21T18:17:43.840Z,10.83
2018-10-21T18:20:13.429Z,6.13
2018-10-21T18:22:42.182Z,2.80
2018-10-21T18:25:11.177Z,2.63
2018-10-21T18:27:40.326Z,3.10
2018-10-21T18:30:10.348Z,5.40
2018-10-21T18:32:39.076Z,3.33
2018-10-21T18:35:09.214Z,2.60
2018-10-21T18:37:38.008Z,4.00
2018-10-21T18:40:07.714Z,4.27
2018-10-21T18:42:36.489Z,1.80
2018-10-21T18:45:05.619Z,3.73
2018-10-21T18:47:34.466Z,2.70
2018-10-21T18:50:03.136Z,3.83
2018-10-21T18:52:31.895Z,3.33
2018-10-21T18:55:00.609Z,4.27
2018-10-21T18:57:29.316Z,5.53
2018-10-21T18:59:58.059Z,4.27
2018-10-21T19:02:26.764Z,4.67
2018-10-21T19:04:55.465Z,6.63
2018-10-21T19:07:24.168Z,4.70
2018-10-21T19:09:52.857Z,12.60
2018-10-21T19:12:21.584Z,6.93
2018-10-21T19:14:50.285Z,8.23
2018-10-21T19:17:18.948Z,11.70
2018-10-21T19:19:47.687Z,8.07
2018-10-21T19:22:16.391Z,6.27
2018-10-21T19:24:45.068Z,7.03
2018-10-21T19:27:13.887Z,5.43
2018-10-21T19:29:42.496Z,7.73
2018-10-21T19:32:11.165Z,5.30
2018-10-21T19:34:39.855Z,4.37
2018-10-21T19:37:08.646Z,4.40
2018-10-21T19:39:37.346Z,7.90
2018-10-21T19:42:06.104Z,6.40
2018-10-21T19:44:34.833Z,3.73
2018-10-21T19:47:03.596Z,5.03
2018-10-21T19:49:32.309Z,13.90
2018-10-21T19:52:01.020Z,9.10
2018-10-21T19:54:29.708Z,8.90
2018-10-21T19:56:58.448Z,5.60
2018-10-21T19:59:27.247Z,8.63
2018-10-21T20:01:55.965Z,6.50
2018-10-21T20:04:24.752Z,3.40
2018-10-21T20:06:53.638Z,5.30
2018-10-21T20:09:22.439Z,5.20
2018-10-21T20:11:51.246Z,9.00
2018-10-21T20:14:20.199Z,10.00
2018-10-21T20:16:49.007Z,4.13
2018-10-21T20:19:17.952Z,5.63
2018-10-21T20:21:46.687Z,7.33
2018-10-21T20:24:15.473Z,5.17
2018-10-21T20:26:44.192Z,6.27
2018-10-21T20:29:13.657Z,8.93
2018-10-21T20:31:42.596Z,5.13
2018-10-21T20:34:11.364Z,4.40
2018-10-21T20:36:40.061Z,11.13
2018-10-21T20:39:10.054Z,4.63
2018-10-21T20:41:39.476Z,7.80
2018-10-21T20:44:08.911Z,9.27
2018-10-21T20:46:38.504Z,8.10
2018-10-21T20:49:07.580Z,4.23
2018-10-21T20:51:36.422Z,9.13
2018-10-21T20:54:05.531Z,7.87
2018-10-21T20:56:34.309Z,5.77
2018-10-21T20:59:03.188Z,7.43
2018-10-21T21:01:32.208Z,7.27
2018-10-21T21:04:01.228Z,4.40
2018-10-21T21:06:29.944Z,6.43
2018-10-21T21:08:59.736Z,10.63
2018-10-21T21:11:29.551Z,5.90
2018-10-21T21:13:58.272Z,4.90
2018-10-21T21:16:27.163Z,6.87
2018-10-21T21:18:55.841Z,11.27
2018-10-21T21:21:25.216Z,9.40
2018-10-21T21:23:53.976Z,8.73
2018-10-21T21:26:22.633Z,4.33
2018-10-21T21:28:51.310Z,8.07
2018-10-21T21:31:20.068Z,5.47
2018-10-21T21:33:48.801Z,6.10
2018-10-21T21:36:17.571Z,7.07
2018-10-21T21:38:46.235Z,3.83
2018-10-21T21:41:14.941Z,5.30
2018-10-21T21:43:43.710Z,9.03
2018-10-21T21:46:12.512Z,9.93
2018-10-21T21:48:41.144Z,4.40
2018-10-21T21:51:09.850Z,9.87
2018-10-21T21:53:38.522Z,9.17
2018-10-21T21:56:07.228Z,9.23
2018-10-21T21:58:35.989Z,5.50
2018-10-21T22:01:04.725Z,10.63
2018-10-21T22:03:33.434Z,6.90
2018-10-21T22:06:02.207Z,6.23
2018-10-21T22:08:31.420Z,6.53
2018-10-21T22:11:00.140Z,4.43
2018-10-21T22:13:28.906Z,5.40
2018-10-21T22:15:57.694Z,7.37
2018-10-21T22:18:26.361Z,9.77
2018-10-21T22:20:55.054Z,14.63
2018-10-21T22:23:23.851Z,5.97
2018-10-21T22:25:52.600Z,4.43
2018-10-21T22:28:21.400Z,11.40
2018-10-21T22:30:50.115Z,7.93
2018-10-21T22:33:18.924Z,7.23
2018-10-21T22:35:47.608Z,13.53
2018-10-21T22:38:16.334Z,8.13
2018-10-21T22:40:45.043Z,7.73
2018-10-21T22:43:13.744Z,8.00
2018-10-21T22:45:42.429Z,4.13
2018-10-21T22:48:11.275Z,7.73
2018-10-21T22:50:39.945Z,9.20
2018-10-21T22:53:08.619Z,5.80
2018-10-21T22:55:37.290Z,4.27
2018-10-21T22:58:06.233Z,4.63
2018-10-21T23:00:35.068Z,8.13
2018-10-21T23:03:03.852Z,6.13
2018-10-21T23:05:32.587Z,5.60
2018-10-21T23:08:01.620Z,5.53
2018-10-21T23:10:30.308Z,9.53
2018-10-21T23:12:59.042Z,6.93
2018-10-21T23:15:27.756Z,6.50
2018-10-21T23:17:56.451Z,7.70
2018-10-21T23:20:25.184Z,6.50
2018-10-21T23:22:53.872Z,4.77
2018-10-21T23:25:22.580Z,4.40
2018-10-21T23:27:51.333Z,4.47
2018-10-21T23:30:20.084Z,6.90
2018-10-21T23:32:49.276Z,9.37
2018-10-21T23:35:17.952Z,6.07
2018-10-21T23:37:46.625Z,7.53
2018-10-21T23:40:15.383Z,7.73
2018-10-21T23:42:44.027Z,8.93
2018-10-21T23:45:12.708Z,3.67
2018-10-21T23:47:41.398Z,7.23
2018-10-21T23:50:10.182Z,6.60
2018-10-21T23:52:38.903Z,3.03
2018-10-21T23:55:07.659Z,9.10
2018-10-21T23:57:36.361Z,5.23
